sensor_id;sensor_type;location;lat;lon;timestamp;pressure;altitude;pressure_sealevel;temperature;humidity
35151;BME280;55720;51.972;4.624;2023-04-21T00:02:23;100703.59;;;6.58;100.00
35151;BME280;55720;51.972;4.624;2023-04-21T00:04:48;100633.97;;;6.60;100.00
35151;BME280;55720;51.972;4.624;2023-04-21T00:07:14;100632.03;;;6.61;100.00
35151;BME280;55720;51.972;4.624;2023-04-21T00:09:40;100617.88;;;6.59;100.00
35151;BME280;55720;51.972;4.624;2023-04-21T00:12:06;100609.09;;;6.62;100.00
35151;BME280;55720;51.972;4.624;2023-04-21T00:14:31;100603.66;;;6.62;100.00
35151;BME280;55720;51.972;4.624;2023-04-21T00:16:56;100602.50;;;6.63;100.00
35151;BME280;55720;51.972;4.624;2023-04-21T00:19:24;100601.22;;;6.60;100.00
35151;BME280;55720;51.972;4.624;2023-04-21T00:21:49;100599.59;;;6.59;100.00
35151;BME280;55720;51.972;4.624;2023-04-21T00:24:15;100601.53;;;6.59;100.00
35151;BME280;55720;51.972;4.624;2023-04-21T00:26:40;100606.19;;;6.58;100.00
35151;BME280;55720;51.972;4.624;2023-04-21T00:29:05;100606.69;;;6.60;100.00
35151;BME280;55720;51.972;4.624;2023-04-21T00:31:31;100616.97;;;6.63;100.00
35151;BME280;55720;51.972;4.624;2023-04-21T00:33:56;100641.22;;;6.65;100.00
35151;BME280;55720;51.972;4.624;2023-04-21T00:36:21;100668.50;;;6.65;100.00
35151;BME280;55720;51.972;4.624;2023-04-21T00:38:49;100702.34;;;6.64;100.00
35151;BME280;55720;51.972;4.624;2023-04-21T00:41:14;100711.34;;;6.64;100.00
35151;BME280;55720;51.972;4.624;2023-04-21T00:44:02;100736.19;;;6.63;100.00
35151;BME280;55720;51.972;4.624;2023-04-21T00:46:28;100772.97;;;6.65;100.00
35151;BME280;55720;51.972;4.624;2023-04-21T00:48:54;100799.75;;;6.63;100.00
35151;BME280;55720;51.972;4.624;2023-04-21T00:51:19;100811.47;;;6.64;100.00
35151;BME280;55720;51.972;4.624;2023-04-21T00:53:45;100836.03;;;6.64;100.00
35151;BME280;55720;51.972;4.624;2023-04-21T00:56:10;100852.38;;;6.64;100.00
35151;BME280;55720;51.972;4.624;2023-04-21T00:58:39;100865.75;;;6.65;100.00
35151;BME280;55720;51.972;4.624;2023-04-21T01:01:06;100869.88;;;6.63;100.00
35151;BME280;55720;51.972;4.624;2023-04-21T01:03:31;100888.16;;;6.62;100.00
35151;BME280;55720;51.972;4.624;2023-04-21T01:05:57;100888.97;;;6.63;100.00
35151;BME280;55720;51.972;4.624;2023-04-21T01:08:22;100889.47;;;6.65;100.00
35151;BME280;55720;51.972;4.624;2023-04-21T01:10:47;100889.97;;;6.67;100.00
35151;BME280;55720;51.972;4.624;2023-04-21T01:13:13;100894.94;;;6.65;100.00
35151;BME280;55720;51.972;4.624;2023-04-21T01:15:38;100904.72;;;6.66;100.00
35151;BME280;55720;51.972;4.624;2023-04-21T01:18:03;100869.25;;;6.66;100.00
35151;BME280;55720;51.972;4.624;2023-04-21T01:20:29;100914.31;;;6.63;100.00
35151;BME280;55720;51.972;4.624;2023-04-21T01:22:54;100918.34;;;6.66;100.00
35151;BME280;55720;51.972;4.624;2023-04-21T01:25:19;100929.47;;;6.69;100.00
35151;BME280;55720;51.972;4.624;2023-04-21T01:27:50;100914.84;;;6.65;100.00
35151;BME280;55720;51.972;4.624;2023-04-21T01:30:16;100930.28;;;6.70;100.00
35151;BME280;55720;51.972;4.624;2023-04-21T01:32:42;100955.78;;;6.65;100.00
35151;BME280;55720;51.972;4.624;2023-04-21T01:35:08;100965.06;;;6.64;100.00
35151;BME280;55720;51.972;4.624;2023-04-21T01:37:33;100974.88;;;6.65;100.00
35151;BME280;55720;51.972;4.624;2023-04-21T01:40:02;100997.00;;;6.64;100.00
35151;BME280;55720;51.972;4.624;2023-04-21T01:42:30;101010.91;;;6.62;100.00
35151;BME280;55720;51.972;4.624;2023-04-21T01:44:55;101023.78;;;6.62;100.00
35151;BME280;55720;51.972;4.624;2023-04-21T01:47:22;101040.94;;;6.62;100.00
35151;BME280;55720;51.972;4.624;2023-04-21T01:49:47;101061.97;;;6.62;100.00
35151;BME280;55720;51.972;4.624;2023-04-21T01:52:13;101064.78;;;6.57;100.00
35151;BME280;55720;51.972;4.624;2023-04-21T01:54:38;101064.50;;;6.58;100.00
35151;BME280;55720;51.972;4.624;2023-04-21T01:57:04;101070.44;;;6.60;100.00
35151;BME280;55720;51.972;4.624;2023-04-21T01:59:30;101068.31;;;6.57;100.00
35151;BME280;55720;51.972;4.624;2023-04-21T02:01:56;101075.41;;;6.58;100.00
35151;BME280;55720;51.972;4.624;2023-04-21T02:04:21;101082.78;;;6.58;100.00
35151;BME280;55720;51.972;4.624;2023-04-21T02:06:46;101101.56;;;6.59;100.00
35151;BME280;55720;51.972;4.624;2023-04-21T02:09:12;101132.97;;;6.57;100.00
35151;BME280;55720;51.972;4.624;2023-04-21T02:11:37;101143.09;;;6.56;100.00
35151;BME280;55720;51.972;4.624;2023-04-21T02:14:02;101170.91;;;6.58;100.00
35151;BME280;55720;51.972;4.624;2023-04-21T02:16:28;101185.31;;;6.59;100.00
35151;BME280;55720;51.972;4.624;2023-04-21T02:18:55;101189.66;;;6.60;100.00
35151;BME280;55720;51.972;4.624;2023-04-21T02:21:27;101232.81;;;6.58;100.00
35151;BME280;55720;51.972;4.624;2023-04-21T02:23:53;101253.03;;;6.57;100.00
35151;BME280;55720;51.972;4.624;2023-04-21T02:26:21;101262.03;;;6.57;100.00
35151;BME280;55720;51.972;4.624;2023-04-21T02:28:46;101276.97;;;6.60;100.00
35151;BME280;55720;51.972;4.624;2023-04-21T02:31:12;101286.78;;;6.61;100.00
35151;BME280;55720;51.972;4.624;2023-04-21T02:33:37;101324.22;;;6.55;100.00
35151;BME280;55720;51.972;4.624;2023-04-21T02:36:03;101199.06;;;6.54;100.00
35151;BME280;55720;51.972;4.624;2023-04-21T02:38:29;101273.22;;;6.56;100.00
35151;BME280;55720;51.972;4.624;2023-04-21T02:40:55;101326.19;;;6.55;100.00
35151;BME280;55720;51.972;4.624;2023-04-21T02:43:20;101356.47;;;6.53;100.00
35151;BME280;55720;51.972;4.624;2023-04-21T02:45:46;101353.50;;;6.50;100.00
35151;BME280;55720;51.972;4.624;2023-04-21T02:48:11;101379.16;;;6.49;100.00
35151;BME280;55720;51.972;4.624;2023-04-21T02:50:36;101394.94;;;6.52;100.00
35151;BME280;55720;51.972;4.624;2023-04-21T02:53:02;101424.09;;;6.56;100.00
35151;BME280;55720;51.972;4.624;2023-04-21T02:55:27;101403.06;;;6.57;100.00
35151;BME280;55720;51.972;4.624;2023-04-21T02:57:53;101425.13;;;6.60;100.00
35151;BME280;55720;51.972;4.624;2023-04-21T03:00:18;101496.94;;;6.56;100.00
35151;BME280;55720;51.972;4.624;2023-04-21T03:02:44;101609.34;;;6.58;100.00
35151;BME280;55720;51.972;4.624;2023-04-21T03:05:10;101659.25;;;6.58;100.00
35151;BME280;55720;51.972;4.624;2023-04-21T03:07:36;101694.97;;;6.62;100.00
35151;BME280;55720;51.972;4.624;2023-04-21T03:10:02;101667.97;;;6.60;100.00
35151;BME280;55720;51.972;4.624;2023-04-21T03:12:27;101660.28;;;6.62;100.00
35151;BME280;55720;51.972;4.624;2023-04-21T03:14:55;101665.25;;;6.60;100.00
35151;BME280;55720;51.972;4.624;2023-04-21T03:17:21;101546.28;;;6.59;100.00
35151;BME280;55720;51.972;4.624;2023-04-21T03:19:46;101646.13;;;6.60;100.00
35151;BME280;55720;51.972;4.624;2023-04-21T03:22:11;101669.88;;;6.60;100.00
35151;BME280;55720;51.972;4.624;2023-04-21T03:24:37;101701.53;;;6.61;100.00
35151;BME280;55720;51.972;4.624;2023-04-21T03:27:04;101714.63;;;6.59;100.00
35151;BME280;55720;51.972;4.624;2023-04-21T03:29:30;101800.84;;;6.60;100.00
35151;BME280;55720;51.972;4.624;2023-04-21T03:31:55;101844.50;;;6.60;100.00
35151;BME280;55720;51.972;4.624;2023-04-21T03:34:20;101859.53;;;6.57;100.00
35151;BME280;55720;51.972;4.624;2023-04-21T03:36:46;101938.38;;;6.59;100.00
35151;BME280;55720;51.972;4.624;2023-04-21T03:39:11;101991.34;;;6.58;100.00
35151;BME280;55720;51.972;4.624;2023-04-21T03:41:36;102050.81;;;6.61;100.00
35151;BME280;55720;51.972;4.624;2023-04-21T03:44:02;102099.94;;;6.61;100.00
35151;BME280;55720;51.972;4.624;2023-04-21T03:46:27;102116.84;;;6.58;100.00
35151;BME280;55720;51.972;4.624;2023-04-21T03:48:52;102116.03;;;6.57;100.00
35151;BME280;55720;51.972;4.624;2023-04-21T03:51:18;102132.97;;;6.54;100.00
35151;BME280;55720;51.972;4.624;2023-04-21T03:53:43;102133.22;;;6.58;100.00
35151;BME280;55720;51.972;4.624;2023-04-21T03:56:08;102135.13;;;6.57;100.00
35151;BME280;55720;51.972;4.624;2023-04-21T03:58:35;102130.22;;;6.54;100.00
35151;BME280;55720;51.972;4.624;2023-04-21T04:01:00;102120.94;;;6.55;100.00
35151;BME280;55720;51.972;4.624;2023-04-21T04:03:26;102086.00;;;6.52;100.00
35151;BME280;55720;51.972;4.624;2023-04-21T04:05:51;102080.81;;;6.56;100.00
35151;BME280;55720;51.972;4.624;2023-04-21T04:08:17;102073.19;;;6.53;100.00
35151;BME280;55720;51.972;4.624;2023-04-21T04:10:42;102084.66;;;6.55;100.00
35151;BME280;55720;51.972;4.624;2023-04-21T04:13:08;102066.09;;;6.57;100.00
35151;BME280;55720;51.972;4.624;2023-04-21T04:15:33;102064.72;;;6.59;100.00
35151;BME280;55720;51.972;4.624;2023-04-21T04:17:59;102064.97;;;6.63;100.00
35151;BME280;55720;51.972;4.624;2023-04-21T04:20:25;102068.25;;;6.60;100.00
35151;BME280;55720;51.972;4.624;2023-04-21T04:22:51;102057.91;;;6.62;100.00
35151;BME280;55720;51.972;4.624;2023-04-21T04:25:16;102036.34;;;6.60;100.00
35151;BME280;55720;51.972;4.624;2023-04-21T04:27:42;102051.91;;;6.65;100.00
35151;BME280;55720;51.972;4.624;2023-04-21T04:30:13;102047.78;;;6.62;100.00
35151;BME280;55720;51.972;4.624;2023-04-21T04:32:39;102054.88;;;6.63;100.00
35151;BME280;55720;51.972;4.624;2023-04-21T04:35:08;102034.44;;;6.61;100.00
35151;BME280;55720;51.972;4.624;2023-04-21T04:37:37;102033.88;;;6.64;100.00
35151;BME280;55720;51.972;4.624;2023-04-21T04:40:04;102029.50;;;6.63;100.00
35151;BME280;55720;51.972;4.624;2023-04-21T04:42:31;102028.97;;;6.61;100.00
35151;BME280;55720;51.972;4.624;2023-04-21T04:44:57;102020.22;;;6.59;100.00
35151;BME280;55720;51.972;4.624;2023-04-21T04:47:23;102033.09;;;6.53;100.00
35151;BME280;55720;51.972;4.624;2023-04-21T04:49:49;102028.44;;;6.54;100.00
35151;BME280;55720;51.972;4.624;2023-04-21T04:52:14;102020.53;;;6.57;100.00
35151;BME280;55720;51.972;4.624;2023-04-21T04:54:39;102016.13;;;6.66;100.00
35151;BME280;55720;51.972;4.624;2023-04-21T04:57:05;102008.19;;;6.70;100.00
35151;BME280;55720;51.972;4.624;2023-04-21T04:59:30;102003.28;;;6.72;100.00
35151;BME280;55720;51.972;4.624;2023-04-21T05:01:56;102008.72;;;6.77;100.00
35151;BME280;55720;51.972;4.624;2023-04-21T05:04:21;102002.72;;;6.80;100.00
35151;BME280;55720;51.972;4.624;2023-04-21T05:06:47;102002.97;;;6.83;100.00
35151;BME280;55720;51.972;4.624;2023-04-21T05:09:12;101996.13;;;6.86;100.00
35151;BME280;55720;51.972;4.624;2023-04-21T05:11:38;101995.56;;;6.89;100.00
35151;BME280;55720;51.972;4.624;2023-04-21T05:14:03;101995.31;;;6.90;100.00
35151;BME280;55720;51.972;4.624;2023-04-21T05:16:28;101987.38;;;6.94;100.00
35151;BME280;55720;51.972;4.624;2023-04-21T05:18:54;101986.50;;;6.99;100.00
35151;BME280;55720;51.972;4.624;2023-04-21T05:21:23;101978.56;;;7.07;100.00
35151;BME280;55720;51.972;4.624;2023-04-21T05:23:52;101983.47;;;7.10;100.00
35151;BME280;55720;51.972;4.624;2023-04-21T05:26:17;101993.81;;;7.13;100.00
35151;BME280;55720;51.972;4.624;2023-04-21T05:28:43;101997.91;;;7.16;100.00
35151;BME280;55720;51.972;4.624;2023-04-21T05:31:08;102020.28;;;7.18;100.00
35151;BME280;55720;51.972;4.624;2023-04-21T05:33:33;102013.41;;;7.30;100.00
35151;BME280;55720;51.972;4.624;2023-04-21T05:35:59;102026.44;;;7.38;100.00
35151;BME280;55720;51.972;4.624;2023-04-21T05:38:24;102030.31;;;7.37;100.00
35151;BME280;55720;51.972;4.624;2023-04-21T05:40:55;102035.19;;;7.40;100.00
35151;BME280;55720;51.972;4.624;2023-04-21T05:43:20;102056.50;;;7.38;100.00
35151;BME280;55720;51.972;4.624;2023-04-21T05:45:47;102068.44;;;7.53;100.00
35151;BME280;55720;51.972;4.624;2023-04-21T05:48:12;102081.06;;;7.49;100.00
35151;BME280;55720;51.972;4.624;2023-04-21T05:50:38;102089.28;;;7.49;100.00
35151;BME280;55720;51.972;4.624;2023-04-21T05:53:03;102099.56;;;7.62;100.00
35151;BME280;55720;51.972;4.624;2023-04-21T05:55:28;102114.59;;;7.64;100.00
35151;BME280;55720;51.972;4.624;2023-04-21T05:57:54;102128.56;;;7.63;100.00
35151;BME280;55720;51.972;4.624;2023-04-21T06:00:19;102136.50;;;7.59;100.00
35151;BME280;55720;51.972;4.624;2023-04-21T06:02:45;102146.03;;;7.62;100.00
35151;BME280;55720;51.972;4.624;2023-04-21T06:05:10;102150.38;;;7.68;100.00
35151;BME280;55720;51.972;4.624;2023-04-21T06:07:35;102156.13;;;7.66;100.00
35151;BME280;55720;51.972;4.624;2023-04-21T06:10:02;102174.41;;;7.71;100.00
35151;BME280;55720;51.972;4.624;2023-04-21T06:12:28;102163.72;;;7.79;100.00
35151;BME280;55720;51.972;4.624;2023-04-21T06:14:53;102179.81;;;7.86;100.00
35151;BME280;55720;51.972;4.624;2023-04-21T06:17:22;102188.81;;;7.91;100.00
35151;BME280;55720;51.972;4.624;2023-04-21T06:19:47;102192.00;;;8.09;100.00
35151;BME280;55720;51.972;4.624;2023-04-21T06:22:20;102195.81;;;8.13;100.00
35151;BME280;55720;51.972;4.624;2023-04-21T06:24:45;102206.94;;;8.31;100.00
35151;BME280;55720;51.972;4.624;2023-04-21T06:27:11;102215.16;;;8.65;100.00
35151;BME280;55720;51.972;4.624;2023-04-21T06:29:37;102232.22;;;8.57;100.00
35151;BME280;55720;51.972;4.624;2023-04-21T06:32:02;102243.59;;;8.30;100.00
35151;BME280;55720;51.972;4.624;2023-04-21T06:34:28;102270.97;;;8.30;100.00
35151;BME280;55720;51.972;4.624;2023-04-21T06:36:54;102270.94;;;8.25;100.00
35151;BME280;55720;51.972;4.624;2023-04-21T06:39:19;102263.56;;;8.26;100.00
35151;BME280;55720;51.972;4.624;2023-04-21T06:41:44;102267.66;;;8.33;100.00
35151;BME280;55720;51.972;4.624;2023-04-21T06:44:10;102256.72;;;8.28;100.00
35151;BME280;55720;51.972;4.624;2023-04-21T06:46:41;102251.03;;;8.15;100.00
35151;BME280;55720;51.972;4.624;2023-04-21T06:49:07;102232.75;;;8.10;100.00
35151;BME280;55720;51.972;4.624;2023-04-21T06:51:33;102199.94;;;8.10;100.00
35151;BME280;55720;51.972;4.624;2023-04-21T06:53:58;102152.81;;;8.18;100.00
35151;BME280;55720;51.972;4.624;2023-04-21T06:56:26;102138.63;;;8.11;100.00
35151;BME280;55720;51.972;4.624;2023-04-21T06:58:51;102105.72;;;8.21;100.00
35151;BME280;55720;51.972;4.624;2023-04-21T07:01:17;102038.09;;;8.27;100.00
35151;BME280;55720;51.972;4.624;2023-04-21T07:03:42;102005.22;;;8.32;100.00
35151;BME280;55720;51.972;4.624;2023-04-21T07:06:07;101991.31;;;8.28;100.00
35151;BME280;55720;51.972;4.624;2023-04-21T07:08:33;101933.56;;;8.30;100.00
35151;BME280;55720;51.972;4.624;2023-04-21T07:10:58;101878.44;;;8.42;100.00
35151;BME280;55720;51.972;4.624;2023-04-21T07:13:23;101843.56;;;8.28;100.00
35151;BME280;55720;51.972;4.624;2023-04-21T07:15:49;101779.28;;;8.26;100.00
35151;BME280;55720;51.972;4.624;2023-04-21T07:18:14;101699.03;;;8.35;100.00
35151;BME280;55720;51.972;4.624;2023-04-21T07:20:40;101629.59;;;8.31;100.00
35151;BME280;55720;51.972;4.624;2023-04-21T07:23:05;101563.13;;;8.45;100.00
35151;BME280;55720;51.972;4.624;2023-04-21T07:25:31;101492.69;;;8.50;100.00
35151;BME280;55720;51.972;4.624;2023-04-21T07:27:56;101419.81;;;8.54;100.00
35151;BME280;55720;51.972;4.624;2023-04-21T07:30:21;101332.47;;;8.80;100.00
35151;BME280;55720;51.972;4.624;2023-04-21T07:32:47;101253.78;;;8.85;100.00
35151;BME280;55720;51.972;4.624;2023-04-21T07:35:12;101160.31;;;9.09;100.00
35151;BME280;55720;51.972;4.624;2023-04-21T07:37:38;101075.44;;;9.18;100.00
35151;BME280;55720;51.972;4.624;2023-04-21T07:40:06;101013.78;;;9.55;100.00
35151;BME280;55720;51.972;4.624;2023-04-21T07:42:31;100984.59;;;9.33;100.00
35151;BME280;55720;51.972;4.624;2023-04-21T07:44:57;100902.72;;;9.40;100.00
35151;BME280;55720;51.972;4.624;2023-04-21T07:47:25;100863.00;;;9.63;100.00
35151;BME280;55720;51.972;4.624;2023-04-21T07:49:50;100801.25;;;10.04;100.00
35151;BME280;55720;51.972;4.624;2023-04-21T07:52:16;100754.47;;;10.09;100.00
35151;BME280;55720;51.972;4.624;2023-04-21T07:54:41;100701.03;;;10.56;100.00
35151;BME280;55720;51.972;4.624;2023-04-21T07:57:06;100680.72;;;11.35;100.00
35151;BME280;55720;51.972;4.624;2023-04-21T07:59:32;100600.41;;;11.05;100.00
35151;BME280;55720;51.972;4.624;2023-04-21T08:01:57;100575.38;;;10.74;100.00
35151;BME280;55720;51.972;4.624;2023-04-21T08:04:23;100559.56;;;10.59;100.00
35151;BME280;55720;51.972;4.624;2023-04-21T08:06:48;100555.72;;;10.96;100.00
35151;BME280;55720;51.972;4.624;2023-04-21T08:09:13;100538.09;;;10.97;100.00
35151;BME280;55720;51.972;4.624;2023-04-21T08:11:39;100532.78;;;11.65;100.00
35151;BME280;55720;51.972;4.624;2023-04-21T08:14:04;100541.09;;;12.76;100.00
35151;BME280;55720;51.972;4.624;2023-04-21T08:16:29;100603.31;;;12.49;100.00
35151;BME280;55720;51.972;4.624;2023-04-21T08:18:55;100694.56;;;11.51;100.00
35151;BME280;55720;51.972;4.624;2023-04-21T08:21:21;100680.25;;;12.98;100.00
35151;BME280;55720;51.972;4.624;2023-04-21T08:23:46;100722.91;;;14.60;100.00
35151;BME280;55720;51.972;4.624;2023-04-21T08:26:11;100841.34;;;13.12;100.00
35151;BME280;55720;51.972;4.624;2023-04-21T08:28:37;100867.16;;;15.01;100.00
35151;BME280;55720;51.972;4.624;2023-04-21T08:31:02;100961.28;;;14.14;100.00
35151;BME280;55720;51.972;4.624;2023-04-21T08:33:28;101000.88;;;13.78;100.00
35151;BME280;55720;51.972;4.624;2023-04-21T08:35:54;101021.72;;;13.63;100.00
35151;BME280;55720;51.972;4.624;2023-04-21T08:38:19;101043.72;;;13.48;100.00
35151;BME280;55720;51.972;4.624;2023-04-21T08:40:44;101037.72;;;13.46;100.00
35151;BME280;55720;51.972;4.624;2023-04-21T08:43:10;101056.09;;;12.93;100.00
35151;BME280;55720;51.972;4.624;2023-04-21T08:45:37;101011.72;;;13.99;100.00
35151;BME280;55720;51.972;4.624;2023-04-21T08:48:03;101033.50;;;14.44;100.00
35151;BME280;55720;51.972;4.624;2023-04-21T08:50:30;101029.00;;;15.80;100.00
35151;BME280;55720;51.972;4.624;2023-04-21T08:52:56;101089.69;;;13.56;100.00
35151;BME280;55720;51.972;4.624;2023-04-21T08:55:27;101047.44;;;14.47;100.00
35151;BME280;55720;51.972;4.624;2023-04-21T08:57:53;101050.09;;;14.16;100.00
35151;BME280;55720;51.972;4.624;2023-04-21T09:00:19;101064.97;;;13.47;100.00
35151;BME280;55720;51.972;4.624;2023-04-21T09:02:59;101036.78;;;15.08;100.00
35151;BME280;55720;51.972;4.624;2023-04-21T09:05:26;101096.25;;;14.71;100.00
35151;BME280;55720;51.972;4.624;2023-04-21T09:08:11;101100.81;;;13.35;100.00
35151;BME280;55720;51.972;4.624;2023-04-21T09:10:48;101071.56;;;12.86;100.00
35151;BME280;55720;51.972;4.624;2023-04-21T09:13:14;101071.09;;;11.85;100.00
35151;BME280;55720;51.972;4.624;2023-04-21T09:15:41;101020.78;;;12.50;100.00
35151;BME280;55720;51.972;4.624;2023-04-21T09:18:18;100997.28;;;12.77;100.00
35151;BME280;55720;51.972;4.624;2023-04-21T09:20:45;100979.47;;;12.99;100.00
35151;BME280;55720;51.972;4.624;2023-04-21T09:23:11;100987.91;;;13.14;100.00
35151;BME280;55720;51.972;4.624;2023-04-21T09:25:42;101022.44;;;12.75;100.00
35151;BME280;55720;51.972;4.624;2023-04-21T09:28:11;101000.06;;;14.61;100.00
35151;BME280;55720;51.972;4.624;2023-04-21T09:30:38;101065.47;;;13.89;100.00
35151;BME280;55720;51.972;4.624;2023-04-21T09:33:04;101079.91;;;13.10;100.00
35151;BME280;55720;51.972;4.624;2023-04-21T09:35:34;101071.75;;;13.13;100.00
35151;BME280;55720;51.972;4.624;2023-04-21T09:38:00;101051.91;;;13.84;100.00
35151;BME280;55720;51.972;4.624;2023-04-21T09:40:31;101071.13;;;14.20;100.00
35151;BME280;55720;51.972;4.624;2023-04-21T09:42:56;101075.00;;;14.59;100.00
35151;BME280;55720;51.972;4.624;2023-04-21T09:45:25;101112.19;;;13.46;100.00
35151;BME280;55720;51.972;4.624;2023-04-21T09:47:54;101094.72;;;13.54;100.00
35151;BME280;55720;51.972;4.624;2023-04-21T09:50:21;101110.94;;;13.43;100.00
35151;BME280;55720;51.972;4.624;2023-04-21T09:52:50;101107.31;;;13.06;100.00
35151;BME280;55720;51.972;4.624;2023-04-21T09:55:17;101112.56;;;12.21;100.00
35151;BME280;55720;51.972;4.624;2023-04-21T09:57:44;101075.94;;;12.99;100.00
35151;BME280;55720;51.972;4.624;2023-04-21T10:00:12;101089.13;;;12.81;100.00
35151;BME280;55720;51.972;4.624;2023-04-21T10:02:42;101093.78;;;13.01;100.00
35151;BME280;55720;51.972;4.624;2023-04-21T10:05:09;101090.03;;;13.30;100.00
35151;BME280;55720;51.972;4.624;2023-04-21T10:07:35;101072.31;;;13.43;100.00
35151;BME280;55720;51.972;4.624;2023-04-21T10:10:00;101068.91;;;13.98;100.00
35151;BME280;55720;51.972;4.624;2023-04-21T10:12:26;101099.88;;;13.79;100.00
35151;BME280;55720;51.972;4.624;2023-04-21T10:14:53;101116.44;;;13.79;100.00
35151;BME280;55720;51.972;4.624;2023-04-21T10:17:24;101120.63;;;14.13;100.00
35151;BME280;55720;51.972;4.624;2023-04-21T10:19:55;101146.78;;;13.43;100.00
35151;BME280;55720;51.972;4.624;2023-04-21T10:22:29;101127.94;;;13.33;100.00
35151;BME280;55720;51.972;4.624;2023-04-21T10:24:56;101113.38;;;13.45;100.00
35151;BME280;55720;51.972;4.624;2023-04-21T10:27:33;101106.34;;;13.47;100.00
35151;BME280;55720;51.972;4.624;2023-04-21T10:29:59;101090.16;;;14.50;100.00
35151;BME280;55720;51.972;4.624;2023-04-21T10:35:08;101099.00;;;14.71;100.00
35151;BME280;55720;51.972;4.624;2023-04-21T10:37:33;101114.44;;;14.88;100.00
35151;BME280;55720;51.972;4.624;2023-04-21T10:39:58;101120.03;;;14.60;100.00
35151;BME280;55720;51.972;4.624;2023-04-21T10:42:26;101127.66;;;14.51;100.00
35151;BME280;55720;51.972;4.624;2023-04-21T10:44:52;101102.94;;;15.48;100.00
35151;BME280;55720;51.972;4.624;2023-04-21T10:50:10;101140.09;;;15.63;100.00
35151;BME280;55720;51.972;4.624;2023-04-21T10:52:36;101143.16;;;16.08;100.00
35151;BME280;55720;51.972;4.624;2023-04-21T10:55:07;101165.47;;;15.34;100.00
35151;BME280;55720;51.972;4.624;2023-04-21T10:57:35;101155.84;;;16.29;100.00
35151;BME280;55720;51.972;4.624;2023-04-21T11:00:01;101152.50;;;16.39;100.00
35151;BME280;55720;51.972;4.624;2023-04-21T11:02:30;101150.50;;;16.74;100.00
35151;BME280;55720;51.972;4.624;2023-04-21T11:04:56;101170.03;;;16.08;100.00
35151;BME280;55720;51.972;4.624;2023-04-21T11:07:23;101169.34;;;15.95;100.00
35151;BME280;55720;51.972;4.624;2023-04-21T11:10:06;101175.72;;;15.80;100.00
35151;BME280;55720;51.972;4.624;2023-04-21T11:12:40;101188.38;;;15.97;100.00
35151;BME280;55720;51.972;4.624;2023-04-21T11:15:08;101193.91;;;15.18;100.00
35151;BME280;55720;51.972;4.624;2023-04-21T11:17:34;101189.16;;;15.03;100.00
35151;BME280;55720;51.972;4.624;2023-04-21T11:20:04;101179.41;;;14.66;100.00
35151;BME280;55720;51.972;4.624;2023-04-21T11:22:31;101152.28;;;15.93;100.00
35151;BME280;55720;51.972;4.624;2023-04-21T11:24:57;101158.38;;;15.99;100.00
35151;BME280;55720;51.972;4.624;2023-04-21T11:27:51;101166.13;;;16.09;100.00
35151;BME280;55720;51.972;4.624;2023-04-21T11:30:16;101168.44;;;16.61;100.00
35151;BME280;55720;51.972;4.624;2023-04-21T11:32:42;101189.44;;;16.62;100.00
35151;BME280;55720;51.972;4.624;2023-04-21T11:35:07;101207.41;;;16.33;100.00
35151;BME280;55720;51.972;4.624;2023-04-21T11:37:33;101206.19;;;16.50;100.00
35151;BME280;55720;51.972;4.624;2023-04-21T11:39:59;101240.72;;;16.52;100.00
35151;BME280;55720;51.972;4.624;2023-04-21T11:42:25;101245.63;;;16.24;100.00
35151;BME280;55720;51.972;4.624;2023-04-21T11:44:53;101244.47;;;16.09;100.00
35151;BME280;55720;51.972;4.624;2023-04-21T11:47:23;101248.94;;;15.23;100.00
35151;BME280;55720;51.972;4.624;2023-04-21T11:49:53;101228.88;;;15.11;100.00
35151;BME280;55720;51.972;4.624;2023-04-21T11:54:45;101211.72;;;15.05;100.00
35151;BME280;55720;51.972;4.624;2023-04-21T11:57:11;101214.44;;;15.33;100.00
35151;BME280;55720;51.972;4.624;2023-04-21T11:59:36;101220.97;;;15.41;100.00
35151;BME280;55720;51.972;4.624;2023-04-21T12:02:02;101212.00;;;16.10;100.00
35151;BME280;55720;51.972;4.624;2023-04-21T12:04:27;101226.63;;;16.42;100.00
35151;BME280;55720;51.972;4.624;2023-04-21T12:09:21;101239.75;;;15.63;100.00
35151;BME280;55720;51.972;4.624;2023-04-21T12:11:51;101235.47;;;15.81;100.00
35151;BME280;55720;51.972;4.624;2023-04-21T12:14:17;101244.25;;;14.96;100.00
35151;BME280;55720;51.972;4.624;2023-04-21T12:16:43;101221.19;;;15.63;100.00
35151;BME280;55720;51.972;4.624;2023-04-21T12:19:08;101226.22;;;16.24;100.00
35151;BME280;55720;51.972;4.624;2023-04-21T12:21:36;101235.03;;;15.79;100.00
35151;BME280;55720;51.972;4.624;2023-04-21T12:24:03;101228.63;;;15.32;100.00
35151;BME280;55720;51.972;4.624;2023-04-21T12:26:29;101228.19;;;15.45;100.00
35151;BME280;55720;51.972;4.624;2023-04-21T12:28:54;101229.25;;;15.25;100.00
35151;BME280;55720;51.972;4.624;2023-04-21T12:31:20;101221.09;;;15.60;100.00
35151;BME280;55720;51.972;4.624;2023-04-21T12:33:45;101227.50;;;15.95;100.00
35151;BME280;55720;51.972;4.624;2023-04-21T12:36:11;101221.75;;;15.41;100.00
35151;BME280;55720;51.972;4.624;2023-04-21T12:38:36;101221.56;;;15.62;100.00
35151;BME280;55720;51.972;4.624;2023-04-21T12:41:02;101237.16;;;15.70;100.00
35151;BME280;55720;51.972;4.624;2023-04-21T12:43:28;101241.03;;;15.38;100.00
35151;BME280;55720;51.972;4.624;2023-04-21T12:45:53;101230.03;;;14.82;100.00
35151;BME280;55720;51.972;4.624;2023-04-21T12:48:19;101224.03;;;14.80;100.00
35151;BME280;55720;51.972;4.624;2023-04-21T12:50:45;101231.44;;;15.63;100.00
35151;BME280;55720;51.972;4.624;2023-04-21T12:53:11;101235.97;;;16.53;100.00